Архив погоды в Краснослободске

Метеограмма Краснослободск
Четверг, 19 Сентября
Время местн. Темп Ветер Видим Явления Облачность нижн/средн/верх Атм. давл. Влжн Точка росы ВНГО R Сост. почвы Tg s
Напр Скр Прв ур.ст ур.м изм
09:00 +8.6° Ю-В 4 6 10 км - облачно 736 753 +3.2 84% +6.1° 1 км - - - -
06:00 +5.5° С 2 2 10 км - облачно 733 750 +2.1 91% +4.1° 600 м - Сырая (есть малые или большие лужи) - -
03:00 +6.8° С-З 2 4 10 км слабый непрерывный дождь облачно 730 747 +0.2 91% +5.4° 600 м - - - -
00:00 +7.6° В 2 4 10 км слабый непрерывный дождь облачно 730 747 -1.5 90% +6.1° 600 м - - - -
Среда, 18 Сентября
Время местн. Темп Ветер Видим Явления Облачность нижн/средн/верх Атм. давл. Влжн Точка росы ВНГО R Сост. почвы Tg s
Напр Скр Прв ур.ст ур.м изм
21:00 +8.7° В 2 4 10 км слабый непрерывный дождь облачно 732 748 -1.2 83% +6° 600 м - - - -
18:00 +10.4° Ю 6 8 20 км - облачно 733 750 -1 70% +5.2° - - - - -
15:00 +13.6° З 4 6 20 км - облачно 734 750 -0.8 44% +1.5° - - - - -
12:00 +13.3° Ю-З 4 6 20 км - облачно 735 751 -0.2 53% +3.9° - - - - -
09:00 +8.1° Ю,Ю-З 2 4 20 км - облачно 735 752 +0.4 74% +3.8° более 2.5 км - - - -
06:00 +3.5° Ю-З 2 4 20 км - облачно 735 752 +0.2 89% +1.9° более 2.5 км - Влажная (без луж) - -
03:00 +5.3° З 2 4 10 км - ясно 734 751 +0.2 82% +2.4° более 2.5 км - - - -
00:00 +7.6° З 2 4 10 км - ясно 734 751 +0.2 73% +3.1° более 2.5 км - - - -
Вторник, 17 Сентября
Время местн. Темп Ветер Видим Явления Облачность нижн/средн/верх Атм. давл. Влжн Точка росы ВНГО R Сост. почвы Tg s
Напр Скр Прв ур.ст ур.м изм
21:00 +8.5° З 2 4 10 км - ясно 734 751 +0.6 69% +3.1° более 2.5 км - - - -
18:00 +11° З 4 6 20 км - облачно с прояснениями 733 750 +0.4 68% +5.4° более 2.5 км 0 - - -
15:00 +15.3° З 6 10 20 км - облачно 733 749 -0.2 45% +3.5° более 2.5 км - - - -
12:00 +13.9° З 4 8 20 км - облачно 733 750 -0.5 60% +6.3° 1.5 км - - - -
09:00 +10.1° З 4 6 20 км - облачно 734 750 -0.1 77% +6.2° - - - - -
06:00 +7.5° Ю-З 4 4 20 км - облачно 734 751 -0.2 86% +5.3° - - Сырая (есть малые или большие лужи) - -
03:00 +7.7° Ю-З 4 4 10 км - ясно 734 751 -0.5 85% +5.4° более 2.5 км - - - -
00:00 +9.2° Ю,Ю-З 4 6 10 км - переменная облачность 734 751 -0.1 82% +6.3° - - - - -
Понедельник, 16 Сентября
Время местн. Темп Ветер Видим Явления Облачность нижн/средн/верх Атм. давл. Влжн Точка росы ВНГО R Сост. почвы Tg s
Напр Скр Прв ур.ст ур.м изм
21:00 +10.5° Ю-З 4 8 10 км слабый непрерывный дождь {ливневые осадки} облачно 734 751 +0.2 78% +6.9° 600 м - - - -
18:00 +11.8° Ю-З 4 4 10 км - облачно 734 751 -0.2 75% +7.5° 600 м - - - -
15:00 +11.6° Ю-З 6 10 10 км небо без изменений {дождь} облачно 734 751 -0.8 75% +7.4° 1 км - - - -
12:00 +9.9° Ю-З 4 6 10 км слабый непрерывный дождь облачно 735 752 -1.4 87% +7.8° 600 м - - - -
09:00 +8.9° Ю-З 2 4 10 км слабый непрерывный дождь облачно 737 753 -1.5 88% +7.1° 600 м - - - -
06:00 +7.9° Ю 2 4 10 км слабый непрерывный дождь облачно 738 755 -2 89% +6.2° 600 м - Влажная (без луж) - -